Time;durP1;ratioP1;P1;durP2;ratioP2;P2;SDS_P1;SDS_P2;PMS_P1;PMS_P2;Temp;Humidity;BMP_temperature;BMP_pressure;BME280_temperature;BME280_humidity;BME280_pressure;Samples;Min_cycle;Max_cycle;Signal;HPM_P1;HPM_P2
2022/02/13 00:01:09;;;;;;;5.32;4.85;;;7.60;91.60;;;;;;5030802;28;20037;-73
2022/02/13 00:03:37;;;;;;;6.70;6.03;;;7.60;91.70;;;;;;5014126;28;20044;-73
2022/02/13 00:06:04;;;;;;;6.90;6.13;;;7.60;91.70;;;;;;5007815;28;20053;-73
2022/02/13 00:08:33;;;;;;;7.55;5.70;;;7.60;91.80;;;;;;5021503;28;20045;-73
2022/02/13 00:11:12;;;;;;;6.05;5.55;;;7.70;91.80;;;;;;5030073;28;20046;-73
2022/02/13 00:13:40;;;;;;;7.00;6.20;;;7.60;91.80;;;;;;5028144;28;20053;-73
2022/02/13 00:16:08;;;;;;;5.90;5.40;;;7.60;91.80;;;;;;5040209;28;20382;-73
2022/02/13 00:18:35;;;;;;;7.05;6.35;;;7.60;91.80;;;;;;5018960;28;20112;-73
2022/02/13 00:21:03;;;;;;;6.70;6.10;;;7.70;91.90;;;;;;5039998;28;20054;-72
2022/02/13 00:23:31;;;;;;;6.40;5.90;;;7.60;91.90;;;;;;5021052;28;20046;-72
2022/02/13 00:25:59;;;;;;;7.13;6.53;;;7.60;91.90;;;;;;5030552;28;20510;-72
2022/02/13 00:28:27;;;;;;;6.60;6.05;;;7.60;91.90;;;;;;5045265;28;20056;-72
2022/02/13 00:30:55;;;;;;;6.43;5.93;;;7.60;92.00;;;;;;5030647;28;20041;-72
2022/02/13 00:33:22;;;;;;;7.35;6.68;;;7.70;92.00;;;;;;5017459;28;20077;-73
2022/02/13 00:35:50;;;;;;;7.03;6.43;;;7.70;92.00;;;;;;5028154;28;20056;-73
2022/02/13 00:38:17;;;;;;;6.75;5.95;;;7.70;92.00;;;;;;5017649;28;20049;-72
2022/02/13 00:40:45;;;;;;;6.53;6.00;;;7.70;92.10;;;;;;5016513;28;20050;-72
2022/02/13 00:43:13;;;;;;;7.22;5.90;;;7.70;92.10;;;;;;5020046;28;20041;-73
2022/02/13 00:45:40;;;;;;;7.35;5.18;;;7.70;92.10;;;;;;5023264;28;20053;-72
2022/02/13 00:48:10;;;;;;;7.63;6.50;;;7.70;92.10;;;;;;5029393;28;20048;-73
2022/02/13 00:50:38;;;;;;;7.93;6.30;;;7.70;92.10;;;;;;5034727;28;20049;-72
2022/02/13 00:53:06;;;;;;;6.88;6.22;;;7.70;92.10;;;;;;5017788;28;20045;-72
2022/02/13 00:55:34;;;;;;;6.95;6.25;;;7.80;92.10;;;;;;5015982;28;20048;-73
2022/02/13 00:58:02;;;;;;;6.63;6.03;;;7.70;92.10;;;;;;5026976;28;20061;-73
2022/02/13 01:00:29;;;;;;;6.93;5.93;;;7.80;92.10;;;;;;5049106;28;20502;-73
2022/02/13 01:02:59;;;;;;;6.95;6.13;;;7.80;92.10;;;;;;5018144;28;20050;-73
2022/02/13 01:05:26;;;;;;;6.22;5.63;;;7.80;92.10;;;;;;5017583;28;20496;-72
2022/02/13 01:07:54;;;;;;;6.72;6.13;;;7.90;92.20;;;;;;5017633;28;20138;-73
2022/02/13 01:10:22;;;;;;;6.38;5.78;;;7.80;92.20;;;;;;5017162;28;20054;-72
2022/02/13 01:12:49;;;;;;;6.35;5.78;;;7.90;92.20;;;;;;5022104;28;20492;-72
2022/02/13 01:15:17;;;;;;;6.32;5.82;;;7.90;92.20;;;;;;5027071;28;20046;-72
2022/02/13 01:17:45;;;;;;;6.47;5.90;;;7.90;92.10;;;;;;5031453;28;20053;-72
2022/02/13 01:20:12;;;;;;;6.47;5.22;;;7.90;92.20;;;;;;5020958;28;20045;-72
2022/02/13 01:22:40;;;;;;;5.72;4.97;;;7.90;92.20;;;;;;5025540;28;20060;-71
2022/02/13 01:25:08;;;;;;;6.40;5.88;;;7.90;92.20;;;;;;5036573;28;20045;-72
2022/02/13 01:27:35;;;;;;;5.18;4.68;;;8.00;92.20;;;;;;5034434;28;20052;-72
2022/02/13 01:30:04;;;;;;;5.15;4.75;;;8.00;92.20;;;;;;5016401;28;20483;-72
2022/02/13 01:32:32;;;;;;;6.18;5.68;;;8.00;92.20;;;;;;5015804;28;20038;-73
2022/02/13 01:35:00;;;;;;;5.70;5.30;;;8.00;92.10;;;;;;5016345;28;20053;-72
2022/02/13 01:37:27;;;;;;;5.40;4.90;;;8.00;92.10;;;;;;5024650;28;20042;-72
2022/02/13 01:39:55;;;;;;;5.60;5.03;;;7.90;92.10;;;;;;5027160;28;20056;-72
2022/02/13 01:42:23;;;;;;;5.63;5.13;;;8.00;92.10;;;;;;5026737;28;20052;-73
2022/02/13 01:44:52;;;;;;;5.07;4.57;;;8.00;92.20;;;;;;5022620;28;20411;-72
2022/02/13 01:47:20;;;;;;;5.40;4.90;;;8.00;92.20;;;;;;5014899;28;20334;-72
2022/02/13 01:49:48;;;;;;;4.20;3.85;;;8.00;92.20;;;;;;5013658;28;20042;-72
2022/02/13 01:52:16;;;;;;;5.50;5.10;;;8.00;92.20;;;;;;5029609;28;20042;-72
2022/02/13 01:54:44;;;;;;;5.40;4.85;;;8.00;92.20;;;;;;5026191;28;20056;-72
2022/02/13 01:57:12;;;;;;;5.22;4.72;;;8.00;92.20;;;;;;5016459;28;20049;-72
2022/02/13 01:59:40;;;;;;;5.45;4.43;;;8.00;92.20;;;;;;5024335;28;20096;-72
2022/02/13 02:02:08;;;;;;;4.88;4.47;;;8.10;92.20;;;;;;5035172;28;20052;-72
2022/02/13 02:04:36;;;;;;;5.07;4.57;;;8.00;92.20;;;;;;5023968;28;20056;-72
2022/02/13 02:07:05;;;;;;;5.40;4.50;;;8.00;92.20;;;;;;5046722;28;20394;-72
2022/02/13 02:09:32;;;;;;;4.97;4.50;;;8.00;92.20;;;;;;5052558;28;20064;-72
2022/02/13 02:12:04;;;;;;;5.10;4.70;;;8.10;92.20;;;;;;5049922;28;20078;-72
2022/02/13 02:14:33;;;;;;;5.10;4.60;;;8.10;92.20;;;;;;5038153;28;20045;-73
2022/02/13 02:17:02;;;;;;;5.72;5.03;;;8.10;92.20;;;;;;5020549;28;20050;-72
2022/02/13 02:19:31;;;;;;;5.72;5.22;;;8.10;92.20;;;;;;5029173;28;20052;-72
2022/02/13 02:21:59;;;;;;;7.53;5.30;;;8.10;92.20;;;;;;5035994;28;20052;-72
2022/02/13 02:24:28;;;;;;;5.90;5.05;;;8.10;92.20;;;;;;5015166;28;20381;-72
2022/02/13 02:26:56;;;;;;;7.15;5.00;;;8.10;92.20;;;;;;5011962;28;20045;-73
2022/02/13 02:29:24;;;;;;;6.45;5.85;;;8.10;92.20;;;;;;5012941;28;20046;-73
2022/02/13 02:31:53;;;;;;;6.88;5.80;;;8.10;92.20;;;;;;5013200;28;20373;-72
2022/02/13 02:34:20;;;;;;;6.93;6.22;;;8.10;92.20;;;;;;5035646;28;20438;-72
2022/02/13 02:36:48;;;;;;;12.45;6.47;;;8.10;92.20;;;;;;5029228;28;20057;-72
2022/02/13 02:39:15;;;;;;;6.57;5.97;;;8.10;92.20;;;;;;5053621;28;20060;-72
2022/02/13 02:41:43;;;;;;;8.30;6.57;;;8.20;92.20;;;;;;5046221;28;20053;-72
2022/02/13 02:44:11;;;;;;;7.30;6.57;;;8.20;92.20;;;;;;5032322;28;20056;-72
2022/02/13 02:46:38;;;;;;;6.57;5.97;;;8.20;92.20;;;;;;5032670;28;20503;-72
2022/02/13 02:49:06;;;;;;;7.55;6.10;;;8.20;92.20;;;;;;5017833;28;20395;-71
2022/02/13 02:51:34;;;;;;;6.20;5.60;;;8.20;92.20;;;;;;5026300;28;20487;-71
2022/02/13 02:54:01;;;;;;;6.97;6.18;;;8.20;92.30;;;;;;5039663;28;20041;-72
2022/02/13 02:56:29;;;;;;;6.03;5.45;;;8.20;92.30;;;;;;5031467;28;20041;-72
2022/02/13 02:58:57;;;;;;;6.22;5.43;;;8.30;92.30;;;;;;4996377;28;20530;-73
2022/02/13 03:01:24;;;;;;;6.90;5.45;;;8.30;92.30;;;;;;5026076;28;20403;-72
2022/02/13 03:03:52;;;;;;;4.97;4.50;;;8.30;92.30;;;;;;5033559;28;20060;-72
2022/02/13 03:06:19;;;;;;;5.25;4.75;;;8.30;92.30;;;;;;5042255;28;20390;-73
2022/02/13 03:08:47;;;;;;;5.28;4.88;;;8.30;92.40;;;;;;5015624;28;20415;-72
2022/02/13 03:11:15;;;;;;;5.05;4.55;;;8.30;92.40;;;;;;5027817;28;20041;-73
2022/02/13 03:13:42;;;;;;;4.18;3.78;;;8.40;92.30;;;;;;5039904;28;20049;-72
2022/02/13 03:16:10;;;;;;;4.60;4.20;;;8.40;92.30;;;;;;5032344;28;20041;-73
2022/02/13 03:18:37;;;;;;;4.00;3.60;;;8.40;92.40;;;;;;5013880;28;20050;-73
2022/02/13 03:21:05;;;;;;;4.05;3.75;;;8.40;92.40;;;;;;5041078;28;20048;-72
2022/02/13 03:23:33;;;;;;;3.53;3.22;;;8.40;92.30;;;;;;5033423;28;20057;-72
2022/02/13 03:26:02;;;;;;;3.25;2.95;;;8.40;92.40;;;;;;5024737;28;20046;-72
2022/02/13 03:28:30;;;;;;;3.28;3.08;;;8.50;92.40;;;;;;5013223;28;20054;-72
2022/02/13 03:30:57;;;;;;;3.70;3.40;;;8.50;92.40;;;;;;5019434;28;20048;-72
2022/02/13 03:33:26;;;;;;;2.10;1.95;;;8.50;92.40;;;;;;5038245;28;20053;-72
2022/02/13 03:35:54;;;;;;;2.35;2.15;;;8.50;92.40;;;;;;5032219;28;20050;-73
2022/02/13 03:38:23;;;;;;;2.03;1.92;;;8.50;92.40;;;;;;5032691;28;20052;-72
2022/02/13 03:40:51;;;;;;;1.92;1.83;;;8.50;92.40;;;;;;5032363;28;20049;-72
2022/02/13 03:43:18;;;;;;;1.90;1.80;;;8.50;92.40;;;;;;5036838;28;20054;-72
2022/02/13 03:45:46;;;;;;;1.73;1.50;;;8.50;92.40;;;;;;5014577;28;20591;-72
2022/02/13 03:48:14;;;;;;;1.60;1.50;;;8.50;92.40;;;;;;5032603;28;20049;-72
2022/02/13 03:50:41;;;;;;;1.02;1.00;;;8.50;92.40;;;;;;5032465;28;20056;-72
2022/02/13 03:53:09;;;;;;;1.20;1.10;;;8.50;92.50;;;;;;5021331;28;20396;-72
2022/02/13 03:55:37;;;;;;;1.52;1.42;;;8.50;92.50;;;;;;5011151;28;20052;-72
2022/02/13 03:58:04;;;;;;;1.60;1.50;;;8.50;92.40;;;;;;5010830;28;20042;-72
2022/02/13 04:00:32;;;;;;;2.08;1.88;;;8.50;92.40;;;;;;5010076;28;20046;-72
2022/02/13 04:03:00;;;;;;;1.70;1.60;;;8.50;92.40;;;;;;5020374;28;20483;-72
2022/02/13 04:05:27;;;;;;;1.52;1.42;;;8.50;92.40;;;;;;5029405;28;20045;-72
2022/02/13 04:07:55;;;;;;;1.70;1.60;;;8.50;92.40;;;;;;5021133;28;20046;-72
2022/02/13 04:10:22;;;;;;;1.67;1.58;;;8.50;92.40;;;;;;5010834;28;20405;-72
2022/02/13 04:12:50;;;;;;;1.97;1.80;;;8.50;92.40;;;;;;5027651;28;20041;-72
2022/02/13 04:15:18;;;;;;;1.90;1.80;;;8.50;92.50;;;;;;5022587;28;20058;-72
2022/02/13 04:17:45;;;;;;;2.13;2.03;;;8.50;92.40;;;;;;5027635;28;20044;-72
2022/02/13 04:20:13;;;;;;;2.30;2.10;;;8.60;92.50;;;;;;5040091;28;20400;-72
2022/02/13 04:22:40;;;;;;;2.30;2.20;;;8.60;92.50;;;;;;5049993;28;20045;-72
2022/02/13 04:25:08;;;;;;;2.22;2.03;;;8.60;92.50;;;;;;5049204;28;20398;-73
2022/02/13 04:27:36;;;;;;;2.40;2.20;;;8.70;92.50;;;;;;5047932;28;20398;-72
2022/02/13 04:30:05;;;;;;;2.60;2.38;;;8.70;92.50;;;;;;5030891;28;20376;-73
2022/02/13 04:32:33;;;;;;;1.92;1.83;;;8.70;92.50;;;;;;5034844;28;20388;-72
2022/02/13 04:35:01;;;;;;;3.50;1.92;;;8.70;92.50;;;;;;5022525;28;20480;-72
2022/02/13 04:37:29;;;;;;;2.10;1.92;;;8.70;92.50;;;;;;5012407;28;20061;-73
2022/02/13 04:39:56;;;;;;;2.30;2.10;;;8.80;92.50;;;;;;5012206;28;20069;-72
2022/02/13 04:42:24;;;;;;;2.35;2.20;;;8.80;92.40;;;;;;5027991;28;20066;-72
2022/02/13 04:44:52;;;;;;;2.47;2.15;;;8.80;92.40;;;;;;5011485;28;20053;-72
2022/02/13 04:47:19;;;;;;;2.70;2.22;;;8.80;92.40;;;;;;5010941;28;20065;-73
2022/02/13 04:49:47;;;;;;;2.17;1.98;;;8.80;92.40;;;;;;5013062;28;21461;-72
2022/02/13 04:52:15;;;;;;;3.30;2.08;;;8.80;92.40;;;;;;5011705;28;20054;-72
2022/02/13 04:54:43;;;;;;;2.88;2.58;;;8.80;92.40;;;;;;5015814;28;20049;-71
2022/02/13 04:57:10;;;;;;;4.43;2.70;;;8.80;92.40;;;;;;5032405;28;20063;-72
2022/02/13 04:59:38;;;;;;;3.13;2.60;;;8.80;92.40;;;;;;5034252;28;20050;-72
2022/02/13 05:02:06;;;;;;;4.07;2.70;;;8.80;92.30;;;;;;5027497;28;20057;-72
2022/02/13 05:04:34;;;;;;;2.63;2.15;;;8.80;92.30;;;;;;5026467;28;20072;-71
2022/02/13 05:07:02;;;;;;;3.30;2.40;;;8.80;92.30;;;;;;4992669;28;20049;-71
2022/02/13 05:09:31;;;;;;;4.57;2.38;;;8.90;92.30;;;;;;5015064;28;20431;-72
2022/02/13 05:11:59;;;;;;;3.55;2.30;;;8.90;92.30;;;;;;5024770;28;20041;-72
2022/02/13 05:14:27;;;;;;;4.30;2.00;;;8.90;92.30;;;;;;5023116;28;20049;-72
2022/02/13 05:16:54;;;;;;;3.17;1.98;;;8.90;92.30;;;;;;5030975;28;20048;-71
2022/02/13 05:19:22;;;;;;;4.18;1.60;;;8.90;92.20;;;;;;5021389;28;20054;-72
2022/02/13 05:21:54;;;;;;;2.90;1.33;;;8.90;92.20;;;;;;5031363;28;20052;-72
2022/02/13 05:24:22;;;;;;;1.70;1.40;;;8.90;92.20;;;;;;5030709;28;20064;-71
2022/02/13 05:26:50;;;;;;;2.42;1.40;;;8.90;92.10;;;;;;5034197;28;20045;-72
2022/02/13 05:29:17;;;;;;;4.20;1.48;;;9.00;92.10;;;;;;5028467;28;20049;-72
2022/02/13 05:31:45;;;;;;;4.85;1.23;;;8.90;92.00;;;;;;5043276;28;20044;-71
2022/02/13 05:34:15;;;;;;;1.60;1.13;;;9.00;92.00;;;;;;5038604;28;20045;-72
2022/02/13 05:36:44;;;;;;;1.23;0.82;;;9.00;91.80;;;;;;5033022;28;20376;-72
2022/02/13 05:39:12;;;;;;;2.40;1.23;;;9.00;91.70;;;;;;5035030;28;20052;-72
2022/02/13 05:41:42;;;;;;;1.17;0.60;;;9.00;91.50;;;;;;5035244;28;20399;-72
2022/02/13 05:44:10;;;;;;;2.95;0.93;;;9.00;91.40;;;;;;5033965;28;20045;-73
2022/02/13 05:46:38;;;;;;;1.83;0.90;;;9.00;91.20;;;;;;5020270;28;20041;-72
2022/02/13 05:49:06;;;;;;;2.03;1.13;;;9.00;91.10;;;;;;5032925;28;20042;-72
2022/02/13 05:51:34;;;;;;;2.53;1.38;;;9.00;91.10;;;;;;5031724;28;20068;-72
2022/02/13 05:54:02;;;;;;;3.25;1.10;;;9.00;91.10;;;;;;5034123;28;20041;-72
2022/02/13 05:56:30;;;;;;;1.98;1.02;;;9.00;91.00;;;;;;5014335;28;20042;-72
2022/02/13 05:58:58;;;;;;;2.35;1.10;;;9.00;90.90;;;;;;5014282;28;20049;-72
2022/02/13 06:01:25;;;;;;;1.67;1.10;;;9.00;90.80;;;;;;5014891;28;20050;-73
2022/02/13 06:03:53;;;;;;;5.38;1.70;;;9.00;90.70;;;;;;5027762;28;20050;-72
2022/02/13 06:06:20;;;;;;;5.30;1.15;;;9.00;90.50;;;;;;5014824;28;20042;-72
2022/02/13 06:08:48;;;;;;;2.20;0.93;;;9.00;90.40;;;;;;5027843;28;20049;-72
2022/02/13 06:11:16;;;;;;;4.30;1.30;;;9.00;90.30;;;;;;5004783;28;20058;-72
2022/02/13 06:13:43;;;;;;;3.80;1.55;;;9.00;90.10;;;;;;4996648;28;20045;-72
2022/02/13 06:16:11;;;;;;;2.40;0.98;;;9.00;90.10;;;;;;5013129;28;20488;-72
2022/02/13 06:18:39;;;;;;;2.22;1.10;;;9.00;90.00;;;;;;5031084;28;20477;-72
2022/02/13 06:21:06;;;;;;;3.80;1.35;;;9.00;89.90;;;;;;5034241;28;20061;-72
2022/02/13 06:23:34;;;;;;;2.78;1.10;;;9.00;89.90;;;;;;5033013;28;20042;-72
2022/02/13 06:26:02;;;;;;;2.25;1.10;;;9.00;89.90;;;;;;5034311;28;20049;-73
2022/02/13 06:28:32;;;;;;;5.20;1.55;;;9.00;89.90;;;;;;5032897;28;20056;-73
2022/02/13 06:31:00;;;;;;;3.55;1.40;;;9.00;89.90;;;;;;5034185;28;20053;-72
2022/02/13 06:33:28;;;;;;;5.10;1.05;;;9.00;90.00;;;;;;5046003;28;20053;-72
2022/02/13 06:35:56;;;;;;;3.92;1.40;;;9.00;90.00;;;;;;5033941;28;20049;-73
2022/02/13 06:38:23;;;;;;;4.93;1.60;;;9.00;89.90;;;;;;5033575;28;20069;-73
2022/02/13 06:40:51;;;;;;;4.57;1.83;;;8.90;89.90;;;;;;5032898;28;20056;-73
2022/02/13 06:43:19;;;;;;;6.93;1.88;;;9.00;89.90;;;;;;5034127;28;20054;-73
2022/02/13 06:45:46;;;;;;;4.60;1.83;;;9.00;89.80;;;;;;5011228;28;20050;-73
2022/02/13 06:48:14;;;;;;;3.05;1.80;;;9.00;89.80;;;;;;5012843;28;20435;-73
2022/02/13 06:50:42;;;;;;;4.05;1.17;;;8.90;89.70;;;;;;5024406;28;20041;-73
2022/02/13 06:53:09;;;;;;;6.68;1.75;;;8.90;89.60;;;;;;5048568;28;20041;-73
2022/02/13 06:55:37;;;;;;;6.28;2.08;;;8.90;89.50;;;;;;5032447;28;20376;-73
2022/02/13 06:58:05;;;;;;;7.03;1.95;;;8.90;89.50;;;;;;5031997;28;20072;-73
2022/02/13 07:00:32;;;;;;;12.20;2.15;;;8.90;89.50;;;;;;5031898;28;20371;-73
2022/02/13 07:03:00;;;;;;;5.85;2.40;;;8.90;89.60;;;;;;5014922;28;20038;-73
2022/02/13 07:05:28;;;;;;;8.57;2.03;;;8.90;89.60;;;;;;5021944;28;20351;-73
2022/02/13 07:07:55;;;;;;;8.00;1.92;;;8.80;89.50;;;;;;5015183;28;20402;-73
2022/02/13 07:10:23;;;;;;;6.10;1.90;;;8.90;89.40;;;;;;5033434;28;20053;-73
2022/02/13 07:12:51;;;;;;;7.07;2.33;;;8.80;89.30;;;;;;5033345;28;20053;-73
2022/02/13 07:15:18;;;;;;;5.93;2.28;;;8.80;89.20;;;;;;5034232;28;20049;-72
2022/02/13 07:17:46;;;;;;;4.10;1.40;;;8.80;89.20;;;;;;5035563;28;20056;-73
2022/02/13 07:20:14;;;;;;;9.10;2.05;;;8.80;89.20;;;;;;5033005;28;20041;-74
2022/02/13 07:22:42;;;;;;;6.68;1.80;;;8.80;89.10;;;;;;5012192;28;20054;-73
2022/02/13 07:25:09;;;;;;;4.78;1.40;;;8.80;89.00;;;;;;5012313;28;20050;-73
2022/02/13 07:27:38;;;;;;;9.75;1.27;;;8.80;88.80;;;;;;5030497;28;20368;-73
2022/02/13 07:30:12;;;;;;;8.95;1.45;;;8.80;88.80;;;;;;5022251;28;20517;-73
2022/02/13 07:32:44;;;;;;;8.85;1.75;;;8.80;88.70;;;;;;5032738;28;20053;-73
2022/02/13 07:35:12;;;;;;;5.40;1.48;;;8.80;88.70;;;;;;5027572;28;20388;-73
2022/02/13 07:37:41;;;;;;;4.65;1.55;;;8.80;88.60;;;;;;5032838;28;20050;-73
2022/02/13 07:40:11;;;;;;;10.82;2.00;;;8.80;88.70;;;;;;5032444;28;20049;-73
2022/02/13 07:42:42;;;;;;;8.95;1.80;;;8.80;88.70;;;;;;5036997;28;20055;-73
2022/02/13 07:45:12;;;;;;;6.75;1.60;;;8.70;88.80;;;;;;5039824;28;20045;-73
2022/02/13 07:47:40;;;;;;;13.57;2.05;;;8.70;88.80;;;;;;5030989;28;20045;-73
2022/02/13 07:50:08;;;;;;;10.93;2.08;;;8.70;88.90;;;;;;5017522;28;20054;-71
2022/02/13 07:52:37;;;;;;;5.88;1.65;;;8.60;88.90;;;;;;5030765;28;20049;-72
2022/02/13 07:55:05;;;;;;;13.35;2.63;;;8.60;89.10;;;;;;5028784;28;20057;-72
2022/02/13 07:57:33;;;;;;;6.70;1.80;;;8.50;89.20;;;;;;5028559;28;20056;-72
2022/02/13 08:00:01;;;;;;;9.25;2.10;;;8.40;89.30;;;;;;5029670;28;20048;-72
2022/02/13 08:02:41;;;;;;;10.73;2.35;;;8.40;89.50;;;;;;5029652;28;20060;-71
2022/02/13 08:05:09;;;;;;;7.22;1.85;;;8.30;89.60;;;;;;5031213;28;20080;-72
2022/02/13 08:07:44;;;;;;;8.93;1.80;;;8.30;89.70;;;;;;5032563;28;20054;-73
2022/02/13 08:10:18;;;;;;;7.32;1.85;;;8.30;89.80;;;;;;5031881;28;20058;-72
2022/02/13 08:12:46;;;;;;;7.55;1.88;;;8.30;90.00;;;;;;5031860;28;20406;-72
2022/02/13 08:15:15;;;;;;;5.70;1.15;;;8.20;90.00;;;;;;5014187;28;20057;-71
2022/02/13 08:17:43;;;;;;;9.73;1.58;;;8.20;90.10;;;;;;5031590;28;20414;-72
2022/02/13 08:20:14;;;;;;;5.45;1.80;;;8.20;90.10;;;;;;5031684;28;20045;-72
2022/02/13 08:22:42;;;;;;;11.02;1.90;;;8.20;90.10;;;;;;5031845;28;20432;-72
2022/02/13 08:25:10;;;;;;;12.05;2.03;;;8.10;90.20;;;;;;5031593;28;20050;-72
2022/02/13 08:27:38;;;;;;;9.27;2.10;;;8.10;90.20;;;;;;5031453;28;20042;-72
2022/02/13 08:30:06;;;;;;;9.25;1.30;;;8.10;90.20;;;;;;5031527;28;20065;-72
2022/02/13 08:32:34;;;;;;;8.98;1.33;;;8.10;90.30;;;;;;5030199;28;20057;-72
2022/02/13 08:35:02;;;;;;;6.07;1.73;;;8.00;90.30;;;;;;5028714;28;20045;-71
2022/02/13 08:37:29;;;;;;;14.75;2.10;;;8.00;90.30;;;;;;5029444;28;20045;-71
2022/02/13 08:39:57;;;;;;;10.65;1.80;;;8.00;90.30;;;;;;5030353;28;20037;-71
2022/02/13 08:42:24;;;;;;;10.68;1.70;;;7.90;90.30;;;;;;5031786;28;20053;-72
2022/02/13 08:44:52;;;;;;;10.52;2.33;;;7.90;90.40;;;;;;5031397;28;20045;-72
2022/02/13 08:47:20;;;;;;;12.05;2.20;;;7.90;90.30;;;;;;5013603;28;20387;-71
2022/02/13 08:49:49;;;;;;;11.73;1.92;;;7.90;90.40;;;;;;5031508;28;20041;-71
2022/02/13 08:52:17;;;;;;;11.05;2.38;;;7.80;90.40;;;;;;5024181;28;20069;-71
2022/02/13 08:54:45;;;;;;;12.00;2.60;;;7.80;90.40;;;;;;5019858;28;20056;-71
2022/02/13 08:57:13;;;;;;;8.80;1.95;;;7.80;90.40;;;;;;5033925;28;20419;-71
2022/02/13 08:59:41;;;;;;;12.10;2.00;;;7.80;90.40;;;;;;5032128;28;20544;-71
2022/02/13 09:02:09;;;;;;;9.50;1.98;;;7.80;90.30;;;;;;5031151;28;20045;-71
2022/02/13 09:04:36;;;;;;;11.10;1.88;;;7.80;90.30;;;;;;5035437;28;20108;-72
2022/02/13 09:07:04;;;;;;;7.38;1.65;;;7.80;90.30;;;;;;5035819;28;20053;-71
2022/02/13 09:09:32;;;;;;;8.27;1.88;;;7.80;90.20;;;;;;5035783;28;20049;-71
2022/02/13 09:11:59;;;;;;;23.30;6.60;;;7.80;90.20;;;;;;5036309;28;20506;-71
2022/02/13 09:14:30;;;;;;;11.82;1.90;;;7.70;90.20;;;;;;5036759;28;20064;-75
2022/02/13 09:17:01;;;;;;;5.53;1.27;;;7.70;90.20;;;;;;5045191;28;20196;-71
2022/02/13 09:19:28;;;;;;;17.33;2.55;;;7.70;90.10;;;;;;5033713;28;20419;-71
2022/02/13 09:21:56;;;;;;;7.60;1.30;;;7.70;90.10;;;;;;5028660;28;20049;-70
2022/02/13 09:24:23;;;;;;;9.93;1.95;;;7.70;90.10;;;;;;5033721;28;20046;-71
2022/02/13 09:26:51;;;;;;;11.23;1.60;;;7.70;90.10;;;;;;5034958;28;20057;-71
2022/02/13 09:29:19;;;;;;;12.52;1.85;;;7.70;90.10;;;;;;5033554;28;20049;-71
2022/02/13 09:31:47;;;;;;;7.65;1.80;;;7.70;90.00;;;;;;5025704;28;20516;-70
2022/02/13 09:34:18;;;;;;;8.10;1.52;;;7.70;90.00;;;;;;5030281;28;20041;-71
2022/02/13 09:36:47;;;;;;;10.30;1.23;;;7.70;90.00;;;;;;5034977;28;20053;-71
2022/02/13 09:39:15;;;;;;;4.45;1.23;;;7.70;90.00;;;;;;5034641;28;20048;-71
2022/02/13 09:41:44;;;;;;;6.40;1.20;;;7.70;89.90;;;;;;5033128;28;20041;-72
2022/02/13 09:44:11;;;;;;;7.47;1.30;;;7.70;89.90;;;;;;5032408;28;20049;-71
2022/02/13 09:46:40;;;;;;;10.05;1.50;;;7.70;89.80;;;;;;5031612;28;20069;-71
2022/02/13 09:49:08;;;;;;;10.65;1.60;;;7.70;89.80;;;;;;5032495;28;20046;-71
2022/02/13 09:51:36;;;;;;;9.30;1.63;;;7.70;89.70;;;;;;5033009;28;20045;-71
2022/02/13 09:54:07;;;;;;;9.30;1.33;;;7.70;89.60;;;;;;5030153;28;20074;-72
2022/02/13 09:56:36;;;;;;;10.15;1.38;;;7.70;89.60;;;;;;5031430;28;20064;-71
2022/02/13 09:59:06;;;;;;;7.93;1.42;;;7.70;89.50;;;;;;5034744;28;20376;-72
2022/02/13 10:01:47;;;;;;;12.57;1.60;;;7.70;89.50;;;;;;5034658;28;20049;-73
2022/02/13 10:04:17;;;;;;;5.90;1.20;;;7.70;89.40;;;;;;5035037;28;20121;-72
2022/02/13 10:06:45;;;;;;;9.65;1.30;;;7.80;89.20;;;;;;5045614;28;20211;-72
2022/02/13 10:09:13;;;;;;;11.73;1.45;;;7.80;89.20;;;;;;5034615;28;20053;-72
2022/02/13 10:11:45;;;;;;;10.20;1.30;;;7.70;89.20;;;;;;5032232;28;20062;-73
2022/02/13 10:14:15;;;;;;;4.95;1.05;;;7.70;89.20;;;;;;5034209;28;20050;-73
2022/02/13 10:16:46;;;;;;;8.55;1.33;;;7.70;89.20;;;;;;5031455;28;20052;-73
2022/02/13 10:19:22;;;;;;;4.80;1.00;;;7.70;89.20;;;;;;5045834;28;20060;-76
2022/02/13 10:21:54;;;;;;;9.82;1.10;;;7.70;89.10;;;;;;5033030;28;20041;-73
2022/02/13 10:24:32;;;;;;;6.43;1.00;;;7.70;89.10;;;;;;5029356;28;20049;-73
2022/02/13 10:27:00;;;;;;;7.95;1.33;;;7.70;89.10;;;;;;5030012;28;20379;-72
2022/02/13 10:29:30;;;;;;;9.80;1.10;;;7.80;89.10;;;;;;5030646;28;20042;-73
2022/02/13 10:32:11;;;;;;;7.13;1.13;;;7.70;89.00;;;;;;5030765;28;20049;-74
2022/02/13 10:34:39;;;;;;;8.77;1.40;;;7.70;89.00;;;;;;5032046;28;21386;-73
2022/02/13 10:37:07;;;;;;;5.50;0.90;;;7.70;89.00;;;;;;5032717;28;20067;-72
2022/02/13 10:39:45;;;;;;;8.85;1.30;;;7.70;89.00;;;;;;5031006;28;20480;-72
2022/02/13 10:42:13;;;;;;;5.53;1.23;;;7.80;89.10;;;;;;5020929;28;20068;-72
2022/02/13 10:44:41;;;;;;;5.82;0.90;;;7.80;89.10;;;;;;5030668;28;20112;-73
2022/02/13 10:47:23;;;;;;;4.85;0.90;;;7.70;89.10;;;;;;5032101;28;20046;-74
2022/02/13 10:49:52;;;;;;;5.10;0.98;;;7.70;89.00;;;;;;5032161;28;20044;-74
2022/02/13 10:52:20;;;;;;;3.38;0.95;;;7.70;88.90;;;;;;5030836;28;20343;-73
2022/02/13 10:54:49;;;;;;;7.97;1.05;;;7.80;88.90;;;;;;5026694;28;20038;-73
2022/02/13 10:57:16;;;;;;;6.40;1.17;;;7.70;88.90;;;;;;5032729;28;20052;-71
2022/02/13 10:59:44;;;;;;;4.65;1.30;;;7.80;89.00;;;;;;5031530;28;20620;-72
2022/02/13 11:02:13;;;;;;;4.70;1.00;;;7.80;89.00;;;;;;5015407;28;20407;-71
2022/02/13 11:04:42;;;;;;;5.10;0.90;;;7.80;89.00;;;;;;5030393;28;20061;-73
2022/02/13 11:07:10;;;;;;;8.23;1.30;;;7.80;88.80;;;;;;5032183;28;20045;-73
2022/02/13 11:09:39;;;;;;;3.35;1.05;;;7.80;88.80;;;;;;5032098;28;20056;-73
2022/02/13 11:12:08;;;;;;;4.68;1.20;;;7.70;88.80;;;;;;5033534;28;20426;-73
2022/02/13 11:14:40;;;;;;;7.82;1.20;;;7.80;88.80;;;;;;5034074;28;20045;-74
2022/02/13 11:17:09;;;;;;;4.45;0.93;;;7.80;88.80;;;;;;5032142;28;20050;-72
2022/02/13 11:19:44;;;;;;;6.78;1.00;;;7.80;88.70;;;;;;5029860;28;20049;-74
2022/02/13 11:22:15;;;;;;;4.60;1.17;;;7.80;88.70;;;;;;5031985;28;20056;-75
2022/02/13 11:24:50;;;;;;;2.80;0.90;;;7.80;88.70;;;;;;5032052;28;20045;-74
2022/02/13 11:27:21;;;;;;;4.10;0.90;;;7.80;88.70;;;;;;5020149;28;20046;-74
2022/02/13 11:29:54;;;;;;;5.22;0.85;;;7.80;88.80;;;;;;5025749;28;20049;-74
2022/02/13 11:32:52;;;;;;;4.30;1.00;;;7.80;88.70;;;;;;5030991;28;20046;-74
2022/02/13 11:35:57;;;;;;;6.15;1.15;;;7.80;88.70;;;;;;5032472;28;20403;-74
2022/02/13 11:38:52;;;;;;;2.28;0.80;;;7.80;88.70;;;;;;5030048;28;20068;-73
2022/02/13 11:42:00;;;;;;;7.97;1.50;;;7.90;88.70;;;;;;5029356;28;20049;-72
2022/02/13 11:44:34;;;;;;;2.28;0.60;;;7.90;88.60;;;;;;5019475;28;20065;-73
2022/02/13 11:47:05;;;;;;;2.03;0.80;;;7.90;88.60;;;;;;5039631;28;20057;-73
2022/02/13 11:52:35;;;;;;;3.53;1.08;;;7.90;88.60;;;;;;5030051;28;20037;-73
2022/02/13 11:55:05;;;;;;;1.80;0.60;;;8.00;88.60;;;;;;5031667;28;20403;-73
2022/02/13 11:57:33;;;;;;;5.07;0.90;;;8.00;88.60;;;;;;5029845;28;20057;-71
2022/02/13 12:00:06;;;;;;;2.75;0.90;;;8.00;88.50;;;;;;5015209;28;20045;-72
2022/02/13 12:02:37;;;;;;;4.60;1.67;;;8.00;88.50;;;;;;5029565;28;20518;-73
2022/02/13 12:05:07;;;;;;;1.67;0.73;;;8.00;88.40;;;;;;5031779;28;20038;-73
2022/02/13 12:07:38;;;;;;;1.50;0.68;;;8.10;88.30;;;;;;5031787;28;20038;-74
2022/02/13 12:10:11;;;;;;;6.28;1.00;;;8.10;88.30;;;;;;5030391;28;20048;-73
2022/02/13 12:12:41;;;;;;;2.97;1.02;;;8.10;88.30;;;;;;5032673;28;20045;-73
2022/02/13 12:15:13;;;;;;;;;;;8.10;88.30;;;;;;5031910;28;20406;-74
2022/02/13 12:17:42;;;;;;;1.98;0.80;;;8.10;88.30;;;;;;5029406;28;20499;-74
2022/02/13 12:20:14;;;;;;;2.55;1.10;;;8.10;88.30;;;;;;5021239;28;20041;-71
2022/02/13 12:22:42;;;;;;;3.40;0.98;;;8.10;88.30;;;;;;5032826;28;20495;-68
2022/02/13 12:25:11;;;;;;;1.60;0.68;;;8.10;88.30;;;;;;5026719;28;20068;-68
2022/02/13 12:27:44;;;;;;;2.33;0.98;;;8.10;88.40;;;;;;5032899;28;20633;-68
2022/02/13 12:30:12;;;;;;;2.40;0.95;;;8.10;88.30;;;;;;5029143;28;20509;-68
2022/02/13 12:32:40;;;;;;;3.25;0.88;;;8.20;88.20;;;;;;5035059;28;20061;-69
2022/02/13 12:35:10;;;;;;;2.55;0.80;;;8.20;88.20;;;;;;5033005;28;20053;-69
2022/02/13 12:37:42;;;;;;;1.77;0.70;;;8.30;88.30;;;;;;5031473;28;20060;-69
2022/02/13 12:40:16;;;;;;;1.88;0.75;;;8.20;88.20;;;;;;5030212;28;20482;-69
2022/02/13 12:42:46;;;;;;;2.92;0.85;;;8.30;88.20;;;;;;5030129;28;20399;-68
2022/02/13 12:45:19;;;;;;;1.85;0.65;;;8.30;88.20;;;;;;5030175;28;20506;-70
2022/02/13 12:47:52;;;;;;;3.20;0.80;;;8.30;88.20;;;;;;5029526;28;20526;-68
2022/02/13 12:50:22;;;;;;;;;;;8.30;88.20;;;;;;5028757;28;20125;-68
2022/02/13 12:52:51;;;;;;;2.20;0.80;;;8.30;88.20;;;;;;5028706;28;20004;-69
2022/02/13 12:55:20;;;;;;;4.22;0.75;;;8.30;88.20;;;;;;5029425;28;20053;-69
2022/02/13 12:57:52;;;;;;;1.88;0.80;;;8.30;88.10;;;;;;5028450;28;20060;-68
2022/02/13 13:00:22;;;;;;;2.40;0.93;;;8.40;88.10;;;;;;5029711;28;20049;-68
2022/02/13 13:03:00;;;;;;;3.33;0.80;;;8.40;88.20;;;;;;5031697;28;20060;-68
2022/02/13 13:05:38;;;;;;;3.60;1.08;;;8.40;88.10;;;;;;5027459;28;20045;-68
2022/02/13 13:08:13;;;;;;;0.93;0.60;;;8.40;88.20;;;;;;5030328;28;20049;-69
2022/02/13 13:10:52;;;;;;;2.60;0.80;;;8.40;88.20;;;;;;5028131;28;20060;-68